Time;durP1;ratioP1;P1;durP2;ratioP2;P2;SDS_P1;SDS_P2;PMS_P1;PMS_P2;Temp;Humidity;BMP_temperature;BMP_pressure;BME280_temperature;BME280_humidity;BME280_pressure;Samples;Min_cycle;Max_cycle;Signal;HPM_P1;HPM_P2
2021/12/19 00:00:51;;;;;;;21.87;14.40;;;;;;;3.53;82.77;96861.69;4325401;32;20289;-62
2021/12/19 00:03:48;;;;;;;20.37;14.27;;;;;;;3.71;82.39;96858.34;4308950;33;20293;-62
2021/12/19 00:09:01;;;;;;;19.40;13.13;;;;;;;3.96;83.82;96848.66;4323128;32;20390;-62
2021/12/19 00:11:29;;;;;;;18.27;13.83;;;;;;;3.96;84.99;96850.50;4308956;33;20297;-62
2021/12/19 00:14:00;;;;;;;21.40;14.57;;;;;;;4.00;83.78;96867.44;4336770;32;20274;-62
2021/12/19 00:16:28;;;;;;;21.33;13.33;;;;;;;4.08;81.68;96870.63;4345921;32;20356;-62
2021/12/19 00:18:53;;;;;;;17.90;13.50;;;;;;;3.93;82.97;96882.44;4334797;32;20344;-62
2021/12/19 00:21:22;;;;;;;21.77;13.67;;;;;;;3.74;81.71;96881.56;4334831;32;20320;-62
2021/12/19 00:23:51;;;;;;;17.33;13.13;;;;;;;4.04;83.56;96887.81;4327057;33;20186;-62
2021/12/19 00:26:20;;;;;;;18.00;12.30;;;;;;;3.93;83.33;96878.00;4329243;33;20282;-62
2021/12/19 00:28:49;;;;;;;18.00;12.93;;;;;;;4.31;82.85;96866.59;4312063;33;20303;-62
2021/12/19 00:31:16;;;;;;;18.10;13.70;;;;;;;4.13;80.57;96857.66;4322314;32;20338;-62
2021/12/19 00:33:43;;;;;;;18.53;12.63;;;;;;;3.51;81.97;96855.06;4304459;33;20282;-62
2021/12/19 00:36:11;;;;;;;17.93;12.93;;;;;;;3.42;85.19;96854.47;4324058;33;20320;-61
2021/12/19 00:38:58;;;;;;;17.93;12.50;;;;;;;3.07;83.83;96852.22;4321787;33;20274;-62
2021/12/19 00:41:25;;;;;;;21.30;13.27;;;;;;;3.08;84.98;96853.03;4327059;32;20292;-61
2021/12/19 00:44:06;;;;;;;20.47;13.17;;;;;;;3.01;87.40;96857.47;4317257;33;20274;-62
2021/12/19 00:46:31;;;;;;;19.93;13.00;;;;;;;2.96;84.91;96852.84;4328434;32;20286;-61
2021/12/19 00:48:57;;;;;;;19.20;12.87;;;;;;;3.11;87.77;96842.12;4317185;33;20354;-61
2021/12/19 00:51:26;;;;;;;20.77;13.57;;;;;;;3.28;85.18;96832.78;4312509;33;20178;-61
2021/12/19 00:53:54;;;;;;;26.43;14.00;;;;;;;2.90;84.23;96837.97;4315246;33;20201;-61
2021/12/19 00:56:21;;;;;;;22.33;14.40;;;;;;;2.89;85.38;96841.62;4289753;32;20354;-62
2021/12/19 00:58:49;;;;;;;21.37;13.30;;;;;;;3.08;84.84;96848.59;4310839;32;20282;-62
2021/12/19 01:01:17;;;;;;;24.53;13.50;;;;;;;3.22;87.70;96853.78;4322794;32;20322;-62
2021/12/19 01:03:44;;;;;;;22.00;14.27;;;;;;;3.17;84.49;96845.72;4292115;32;20290;-61
2021/12/19 01:06:11;;;;;;;19.30;13.37;;;;;;;2.92;85.32;96835.12;4306546;33;20279;-62
2021/12/19 01:08:38;;;;;;;20.17;13.33;;;;;;;3.09;88.92;96838.91;4293663;33;20345;-62
2021/12/19 01:11:07;;;;;;;20.43;12.80;;;;;;;3.18;87.51;96840.28;4315184;33;20374;-62
2021/12/19 01:13:35;;;;;;;21.27;13.33;;;;;;;3.17;85.83;96840.47;4304686;33;20357;-62
2021/12/19 01:16:09;;;;;;;25.53;12.73;;;;;;;2.73;84.29;96844.66;4302135;33;20386;-62
2021/12/19 01:18:36;;;;;;;19.77;12.80;;;;;;;2.95;87.47;96829.47;4307740;33;20278;-61
2021/12/19 01:21:10;;;;;;;21.17;12.50;;;;;;;3.28;87.31;96822.28;4330412;33;20345;-61
2021/12/19 01:23:37;;;;;;;22.07;13.27;;;;;;;3.57;89.12;96823.50;4329469;33;20278;-62
2021/12/19 01:26:06;;;;;;;17.50;12.80;;;;;;;3.37;84.37;96828.06;4310200;33;20382;-62
2021/12/19 01:28:33;;;;;;;20.03;12.23;;;;;;;3.60;85.87;96827.53;4320404;33;20291;-62
2021/12/19 01:31:01;;;;;;;18.37;12.23;;;;;;;3.28;85.30;96827.53;4284011;33;20343;-61
2021/12/19 01:33:28;;;;;;;20.17;13.30;;;;;;;3.25;84.26;96835.81;4326478;33;20275;-62
2021/12/19 01:35:53;;;;;;;19.37;11.93;;;;;;;2.87;85.05;96825.28;4317334;33;20293;-62
2021/12/19 01:38:20;;;;;;;20.37;13.33;;;;;;;2.86;87.54;96825.50;4328474;33;20267;-62
2021/12/19 01:40:47;;;;;;;23.27;13.63;;;;;;;2.59;86.47;96825.56;4314618;32;20197;-62
2021/12/19 01:43:20;;;;;;;21.23;13.10;;;;;;;2.70;85.82;96817.06;4320489;33;20274;-62
2021/12/19 01:45:46;;;;;;;19.53;12.17;;;;;;;2.98;86.59;96826.44;4320595;33;20278;-62
2021/12/19 01:48:13;;;;;;;21.67;12.63;;;;;;;3.00;86.41;96819.19;4300707;33;20309;-62
2021/12/19 01:50:41;;;;;;;18.30;12.87;;;;;;;3.17;85.88;96820.31;4320111;33;20195;-62
2021/12/19 01:53:11;;;;;;;24.87;14.13;;;;;;;3.12;86.15;96820.94;4312664;32;20320;-62
2021/12/19 01:55:42;;;;;;;19.37;12.90;;;;;;;3.40;85.34;96825.84;4330021;32;20283;-62
2021/12/19 01:58:10;;;;;;;20.90;12.63;;;;;;;3.26;85.69;96832.19;4309911;33;20298;-62
2021/12/19 02:00:40;;;;;;;19.30;12.00;;;;;;;3.15;84.83;96827.56;4297473;33;20289;-62
2021/12/19 02:03:09;;;;;;;18.03;12.97;;;;;;;3.62;86.37;96826.31;4284456;33;20279;-62
2021/12/19 02:05:36;;;;;;;18.80;11.93;;;;;;;3.96;86.29;96825.03;4327070;32;20349;-62
2021/12/19 02:08:07;;;;;;;17.27;12.27;;;;;;;3.74;86.44;96827.22;4314367;33;20313;-61
2021/12/19 02:10:35;;;;;;;17.60;11.83;;;;;;;3.96;87.68;96824.25;4310403;33;20282;-62
2021/12/19 02:13:04;;;;;;;19.77;13.37;;;;;;;4.15;86.56;96823.31;4326683;33;20381;-62
2021/12/19 02:15:33;;;;;;;16.63;11.47;;;;;;;4.33;82.44;96819.91;4326226;32;20282;-62
2021/12/19 02:18:07;;;;;;;18.03;11.77;;;;;;;3.82;84.59;96813.06;4326739;33;20356;-62
2021/12/19 02:20:50;;;;;;;17.37;12.53;;;;;;;4.28;86.83;96815.28;4318834;32;20373;-62
2021/12/19 02:23:21;;;;;;;16.70;11.97;;;;;;;3.96;86.01;96825.03;4298915;33;20282;-62
2021/12/19 02:25:49;;;;;;;18.17;12.87;;;;;;;4.09;85.66;96824.97;4258178;33;20280;-62
2021/12/19 02:28:17;;;;;;;16.23;12.30;;;;;;;3.96;82.77;96819.00;4299059;33;20293;-62
2021/12/19 02:30:43;;;;;;;19.13;13.07;;;;;;;3.50;82.76;96819.34;4305415;33;20282;-62
2021/12/19 02:33:17;;;;;;;17.30;12.57;;;;;;;3.37;83.27;96821.00;4314217;33;20262;-62
2021/12/19 02:35:50;;;;;;;19.70;14.40;;;;;;;3.20;84.26;96819.09;4318016;33;20182;-62
2021/12/19 02:38:38;;;;;;;17.90;11.90;;;;;;;3.32;85.58;96823.47;4300585;33;20287;-62
2021/12/19 02:49:36;;;;;;;20.50;13.43;;;;;;;3.28;84.47;96817.03;4315811;33;21460;-62
2021/12/19 02:52:14;;;;;;;19.83;13.23;;;;;;;3.37;85.65;96810.50;4310274;33;20424;-62
2021/12/19 02:54:53;;;;;;;20.30;13.67;;;;;;;3.43;82.62;96807.06;4330248;33;20290;-61
2021/12/19 02:57:19;;;;;;;19.13;13.17;;;;;;;2.73;82.84;96811.41;4332614;33;20378;-62
2021/12/19 02:59:44;;;;;;;20.80;13.73;;;;;;;2.74;87.21;96820.88;4312569;33;20365;-62
2021/12/19 03:02:09;;;;;;;18.70;12.63;;;;;;;2.93;83.96;96818.38;4300059;33;20177;-62
2021/12/19 03:04:52;;;;;;;20.30;13.90;;;;;;;3.10;86.65;96819.56;4321226;33;20182;-62
2021/12/19 03:07:18;;;;;;;19.53;13.37;;;;;;;3.16;86.04;96813.44;4286735;33;20269;-62
2021/12/19 03:12:48;;;;;;;19.37;13.33;;;;;;;3.47;82.21;96806.63;4326916;33;20236;-62
2021/12/19 03:18:17;;;;;;;21.43;12.53;;;;;;;3.60;85.01;96799.47;4315286;33;20313;-62
2021/12/19 03:20:44;;;;;;;18.60;12.30;;;;;;;3.67;84.04;96812.56;4299554;32;20307;-62
2021/12/19 03:23:14;;;;;;;18.47;12.13;;;;;;;3.77;82.60;96810.25;4319932;33;20332;-61
2021/12/19 03:25:44;;;;;;;19.97;12.63;;;;;;;3.55;84.97;96806.38;4317706;32;20365;-62
2021/12/19 03:28:17;;;;;;;20.83;12.73;;;;;;;3.72;84.68;96804.88;4300812;33;20287;-62
2021/12/19 03:30:45;;;;;;;19.60;13.30;;;;;;;3.91;84.53;96779.47;4331408;32;20297;-62
2021/12/19 03:33:13;;;;;;;21.07;13.87;;;;;;;3.58;82.72;96784.97;4318662;33;20293;-63
2021/12/19 03:35:39;;;;;;;19.83;13.57;;;;;;;3.55;81.63;96774.88;4312580;33;20282;-61
2021/12/19 03:38:09;;;;;;;20.03;12.77;;;;;;;3.25;80.33;96764.22;4317174;33;20328;-61
2021/12/19 03:40:36;;;;;;;20.37;13.37;;;;;;;3.55;81.64;96753.91;4325075;33;20409;-61
2021/12/19 03:43:14;;;;;;;23.27;13.50;;;;;;;3.29;80.89;96758.34;4295128;33;20282;-62
2021/12/19 03:45:46;;;;;;;21.17;14.23;;;;;;;2.78;83.65;96757.59;4316421;33;20345;-62
2021/12/19 03:48:14;;;;;;;19.37;12.97;;;;;;;2.70;83.10;96758.66;4299315;33;20322;-62
2021/12/19 03:50:44;;;;;;;21.07;13.80;;;;;;;3.03;87.33;96761.09;4314968;33;20294;-63
2021/12/19 03:53:15;;;;;;;24.67;13.33;;;;;;;3.18;85.13;96766.84;4318981;33;20320;-61
2021/12/19 03:55:44;;;;;;;20.70;13.13;;;;;;;3.35;86.79;96762.72;4330236;32;20271;-62
2021/12/19 03:58:11;;;;;;;21.83;13.97;;;;;;;3.48;83.11;96774.97;4324535;32;20271;-61
2021/12/19 04:01:00;;;;;;;22.23;14.70;;;;;;;3.34;83.32;96763.72;4318415;33;20293;-61
2021/12/19 04:03:29;;;;;;;23.13;14.87;;;;;;;3.32;84.95;96760.53;4328388;33;20315;-62
2021/12/19 04:06:05;;;;;;;23.37;13.70;;;;;;;3.62;84.58;96768.59;4328957;32;20336;-61
2021/12/19 04:08:34;;;;;;;22.93;14.20;;;;;;;3.23;80.59;96766.22;4321955;32;20353;-62
2021/12/19 04:11:00;;;;;;;23.63;14.87;;;;;;;3.39;87.76;96765.72;4325599;32;20279;-62
2021/12/19 04:13:27;;;;;;;23.33;15.83;;;;;;;3.00;82.62;96756.28;4301455;32;20358;-62
2021/12/19 04:15:53;;;;;;;25.50;15.93;;;;;;;3.07;83.98;96746.56;4312173;32;20274;-62
2021/12/19 04:18:20;;;;;;;22.87;14.27;;;;;;;2.93;84.54;96745.81;4316843;33;20275;-62
2021/12/19 04:20:46;;;;;;;22.60;14.33;;;;;;;3.44;87.33;96745.72;4317370;33;20368;-62
2021/12/19 04:23:14;;;;;;;27.50;16.17;;;;;;;3.40;86.44;96749.78;4297443;32;20283;-62
2021/12/19 04:25:41;;;;;;;25.23;15.80;;;;;;;3.19;83.16;96739.63;4319739;33;20253;-62
2021/12/19 04:28:07;;;;;;;26.57;15.87;;;;;;;3.05;82.00;96738.13;4337066;32;20364;-62
2021/12/19 04:30:35;;;;;;;27.77;16.10;;;;;;;3.04;85.70;96731.25;4330761;32;20289;-61
2021/12/19 04:33:07;;;;;;;26.93;15.93;;;;;;;2.86;83.94;96733.78;4305692;32;20271;-61
2021/12/19 04:35:39;;;;;;;22.63;14.27;;;;;;;3.20;84.46;96729.94;4304758;33;20373;-61
2021/12/19 05:00:10;;;;;;;22.17;13.57;;;;;;;2.81;89.69;96720.50;4328103;32;20289;-61
2021/12/19 05:16:39;;;;;;;26.20;14.37;;;;;;;2.92;84.18;96696.22;4322591;32;20507;-62
2021/12/19 05:19:17;;;;;;;25.30;15.97;;;;;;;3.20;85.58;96694.03;4325006;33;20278;-62
2021/12/19 05:21:44;;;;;;;22.33;13.87;;;;;;;3.01;83.45;96689.75;4319809;33;20274;-62
2021/12/19 05:24:46;;;;;;;21.70;13.90;;;;;;;3.30;85.47;96689.16;4330908;33;20353;-61
2021/12/19 05:27:09;;;;;;;22.73;13.73;;;;;;;3.62;86.55;96678.59;4306389;32;20274;-62
2021/12/19 05:29:37;;;;;;;21.00;14.50;;;;;;;3.73;85.71;96668.19;4307976;33;20421;-62
2021/12/19 05:32:05;;;;;;;20.10;13.43;;;;;;;3.70;83.19;96673.06;4330987;32;20360;-61
2021/12/19 05:34:31;;;;;;;18.70;12.90;;;;;;;3.43;82.43;96694.28;4317192;33;20274;-61
2021/12/19 05:45:19;;;;;;;17.30;12.73;;;;;;;3.06;79.63;96721.38;4307547;32;20289;-62
2021/12/19 05:47:51;;;;;;;17.20;12.83;;;;;;;2.66;81.80;96712.91;4324302;32;20266;-62
2021/12/19 05:50:24;;;;;;;16.03;12.47;;;;;;;2.78;81.30;96718.28;4327528;32;20278;-61
2021/12/19 05:52:52;;;;;;;16.00;11.50;;;;;;;2.89;85.10;96713.22;4329835;32;20270;-62
2021/12/19 05:55:20;;;;;;;16.67;12.97;;;;;;;2.74;81.38;96710.84;4327750;32;20375;-62
2021/12/19 05:57:47;;;;;;;16.10;11.90;;;;;;;2.48;84.18;96705.75;4329700;32;20322;-62
2021/12/19 06:00:17;;;;;;;17.33;13.43;;;;;;;2.94;87.30;96700.25;4293869;33;20275;-62
2021/12/19 06:02:44;;;;;;;18.07;13.00;;;;;;;2.91;83.28;96694.66;4332383;32;20278;-61
2021/12/19 06:05:23;;;;;;;17.93;12.90;;;;;;;2.96;85.71;96697.44;4328857;33;20285;-61
2021/12/19 06:07:48;;;;;;;16.27;12.33;;;;;;;3.05;83.83;96689.12;4327210;32;20278;-62
2021/12/19 06:10:13;;;;;;;19.80;13.97;;;;;;;3.31;85.99;96685.50;4328487;32;20293;-62
2021/12/19 06:12:41;;;;;;;18.40;14.00;;;;;;;3.12;84.00;96687.22;4327569;32;20200;-61
2021/12/19 06:15:11;;;;;;;17.77;13.80;;;;;;;2.89;83.12;96688.81;4318604;33;20257;-61
2021/12/19 06:17:39;;;;;;;18.47;13.43;;;;;;;3.06;81.93;96690.72;4328806;32;20282;-61
2021/12/19 06:20:08;;;;;;;16.37;12.40;;;;;;;3.26;83.51;96693.19;4320032;32;20292;-61
2021/12/19 06:22:36;;;;;;;15.07;12.43;;;;;;;3.00;80.48;96693.37;4301680;33;20366;-61
2021/12/19 06:25:17;;;;;;;16.97;12.33;;;;;;;2.78;81.93;96700.75;4315259;32;20329;-61
2021/12/19 06:27:43;;;;;;;19.80;12.43;;;;;;;2.91;83.25;96695.44;4316533;33;20274;-61
2021/12/19 06:30:10;;;;;;;17.93;13.73;;;;;;;2.39;81.90;96699.13;4326705;33;20266;-61
2021/12/19 06:32:42;;;;;;;17.33;12.83;;;;;;;2.37;83.11;96696.72;4327493;33;20274;-62
2021/12/19 06:35:22;;;;;;;17.60;12.90;;;;;;;2.69;86.05;96686.31;4334209;33;20274;-62
2021/12/19 06:37:49;;;;;;;15.13;12.37;;;;;;;2.54;82.98;96681.31;4332478;33;20270;-62
2021/12/19 06:40:22;;;;;;;17.67;13.10;;;;;;;2.64;83.61;96671.22;4317601;32;20330;-62
2021/12/19 06:42:49;;;;;;;17.20;13.23;;;;;;;2.53;85.04;96665.81;4305282;33;20298;-61
2021/12/19 06:45:22;;;;;;;19.30;13.53;;;;;;;2.38;85.40;96660.88;4318787;32;20297;-62
2021/12/19 06:47:54;;;;;;;15.90;11.97;;;;;;;2.66;83.65;96666.56;4317691;33;20357;-62
2021/12/19 06:50:31;;;;;;;17.60;12.87;;;;;;;2.25;85.91;96680.06;4327050;33;20270;-61
2021/12/19 06:52:58;;;;;;;14.20;11.10;;;;;;;2.17;85.24;96687.31;4329804;32;20288;-61
2021/12/19 06:55:23;;;;;;;15.23;11.70;;;;;;;2.61;84.28;96676.88;4330928;32;20296;-61
2021/12/19 06:57:54;;;;;;;13.17;10.97;;;;;;;2.18;84.39;96662.75;4316704;33;20275;-61
2021/12/19 07:00:24;;;;;;;13.50;11.40;;;;;;;2.51;88.41;96660.78;4322983;33;20358;-62
2021/12/19 07:02:54;;;;;;;14.17;11.77;;;;;;;2.85;87.88;96666.66;4308817;33;20358;-61
2021/12/19 07:05:21;;;;;;;13.80;11.90;;;;;;;2.72;83.27;96667.53;4313222;33;20278;-61
2021/12/19 07:07:47;;;;;;;13.63;11.17;;;;;;;2.54;83.04;96665.59;4315754;32;20294;-62
2021/12/19 07:10:13;;;;;;;13.67;11.60;;;;;;;2.58;83.55;96661.56;4317493;33;20304;-62
2021/12/19 07:12:40;;;;;;;13.57;11.30;;;;;;;2.27;83.02;96672.81;4303374;33;20232;-61
2021/12/19 07:15:06;;;;;;;14.03;11.27;;;;;;;2.41;85.50;96657.84;4328818;33;20282;-61
2021/12/19 07:17:32;;;;;;;12.53;11.13;;;;;;;2.49;83.03;96651.56;4317913;32;20362;-61
2021/12/19 07:19:59;;;;;;;13.40;11.53;;;;;;;2.45;83.87;96652.97;4343535;32;20289;-61
2021/12/19 07:22:26;;;;;;;12.43;10.53;;;;;;;2.24;83.34;96661.94;4321144;32;20208;-61
2021/12/19 07:24:53;;;;;;;11.83;10.30;;;;;;;2.23;82.72;96649.84;4325766;33;20328;-62
2021/12/19 07:27:18;;;;;;;12.67;10.97;;;;;;;2.40;83.47;96640.50;4315971;33;20379;-60
2021/12/19 07:29:45;;;;;;;12.10;9.97;;;;;;;2.57;85.65;96652.09;4337639;32;20336;-62
2021/12/19 07:32:13;;;;;;;11.83;10.63;;;;;;;2.66;81.20;96643.00;4325905;32;20208;-61
2021/12/19 07:34:39;;;;;;;14.73;10.67;;;;;;;2.72;84.73;96636.09;4332512;32;20296;-61
2021/12/19 07:37:06;;;;;;;11.47;9.97;;;;;;;2.63;84.42;96630.31;4328308;32;20411;-61
2021/12/19 07:39:41;;;;;;;11.63;10.10;;;;;;;2.30;83.99;96640.16;4341406;32;20383;-61
2021/12/19 07:42:13;;;;;;;13.17;11.10;;;;;;;2.38;85.43;96658.25;4344994;32;20281;-60
2021/12/19 07:44:39;;;;;;;12.27;9.43;;;;;;;2.53;83.86;96650.91;4333110;32;20274;-61
2021/12/19 07:47:07;;;;;;;11.33;10.20;;;;;;;2.68;82.07;96648.84;4348944;32;20373;-61
2021/12/19 07:49:35;;;;;;;11.43;10.27;;;;;;;2.74;82.00;96647.16;4317521;33;20382;-61
2021/12/19 07:52:06;;;;;;;11.47;10.27;;;;;;;2.46;82.95;96651.97;4325389;32;20335;-61
2021/12/19 07:54:38;;;;;;;12.03;10.70;;;;;;;2.57;82.99;96653.91;4336832;32;20398;-61
2021/12/19 07:57:03;;;;;;;12.43;10.90;;;;;;;2.70;82.40;96651.25;4355897;32;20295;-61
2021/12/19 07:59:30;;;;;;;11.80;10.57;;;;;;;2.79;82.78;96643.91;4348576;32;20278;-61
2021/12/19 08:01:58;;;;;;;13.67;10.67;;;;;;;2.76;81.03;96639.91;4304354;33;20244;-61
2021/12/19 08:04:24;;;;;;;12.40;10.27;;;;;;;2.80;81.94;96629.81;4315100;32;20266;-61
2021/12/19 08:06:50;;;;;;;12.33;10.07;;;;;;;2.58;83.99;96630.13;4347017;32;20288;-62
2021/12/19 08:09:37;;;;;;;12.47;10.50;;;;;;;2.44;83.11;96630.44;4337931;32;20321;-62
2021/12/19 08:12:08;;;;;;;13.27;11.13;;;;;;;2.49;85.37;96626.19;4320165;33;20220;-62
2021/12/19 08:14:35;;;;;;;12.63;10.70;;;;;;;2.57;81.68;96615.44;4343574;32;20277;-61
2021/12/19 08:17:02;;;;;;;12.57;10.73;;;;;;;2.35;82.75;96616.75;4338131;32;20266;-61
2021/12/19 08:19:31;;;;;;;12.43;11.13;;;;;;;2.55;82.94;96614.84;4329668;32;20285;-61
2021/12/19 08:21:57;;;;;;;13.37;11.13;;;;;;;2.49;83.75;96604.44;4322416;32;20293;-62
2021/12/19 08:24:24;;;;;;;11.50;10.30;;;;;;;2.93;83.56;96606.12;4324101;33;20289;-62
2021/12/19 08:26:50;;;;;;;11.57;10.43;;;;;;;3.21;83.83;96587.34;4309748;33;20300;-62
2021/12/19 08:29:17;;;;;;;13.93;12.53;;;;;;;3.30;80.03;96592.13;4306886;32;20318;-62
2021/12/19 08:31:43;;;;;;;11.50;10.37;;;;;;;3.18;80.67;96599.06;4318382;33;20275;-62
2021/12/19 08:34:09;;;;;;;13.00;11.60;;;;;;;3.10;80.09;96596.75;4318085;33;20317;-62
2021/12/19 08:36:41;;;;;;;12.23;10.63;;;;;;;3.01;78.67;96603.25;4309489;33;20292;-61
2021/12/19 08:39:10;;;;;;;11.40;10.23;;;;;;;2.67;78.95;96610.56;4320542;33;20370;-62
2021/12/19 08:41:38;;;;;;;12.67;10.93;;;;;;;2.82;77.58;96612.06;4321198;33;20288;-61
2021/12/19 08:44:05;;;;;;;11.93;10.73;;;;;;;2.76;80.36;96604.03;4325331;32;20417;-62
2021/12/19 08:46:35;;;;;;;11.87;10.67;;;;;;;2.70;80.53;96604.88;4320296;33;20266;-61
2021/12/19 08:49:04;;;;;;;12.63;11.13;;;;;;;2.79;80.22;96605.44;4329944;33;20362;-61
2021/12/19 08:51:34;;;;;;;12.23;10.93;;;;;;;2.58;78.61;96596.09;4329620;33;20270;-61
2021/12/19 08:54:04;;;;;;;12.33;10.67;;;;;;;2.46;78.98;96605.66;4270505;33;20286;-61
2021/12/19 08:56:35;;;;;;;11.47;10.37;;;;;;;2.61;80.46;96593.06;4308375;33;20342;-61
2021/12/19 08:59:04;;;;;;;13.20;10.43;;;;;;;2.64;80.11;96586.59;4328560;33;20362;-61
2021/12/19 09:01:31;;;;;;;11.67;10.47;;;;;;;2.81;81.99;96584.25;4304917;32;20285;-61
2021/12/19 09:04:00;;;;;;;11.13;10.03;;;;;;;2.85;81.61;96578.37;4319753;32;20321;-61
2021/12/19 09:06:29;;;;;;;10.87;9.73;;;;;;;2.99;77.47;96571.22;4342048;32;20274;-61
2021/12/19 09:08:54;;;;;;;11.43;10.07;;;;;;;3.06;79.81;96566.72;4305777;33;20361;-61
2021/12/19 09:11:20;;;;;;;14.10;10.83;;;;;;;2.86;77.67;96576.56;4299472;32;20322;-61
2021/12/19 09:13:48;;;;;;;10.53;9.53;;;;;;;2.83;80.35;96582.22;4329489;32;20261;-61
2021/12/19 09:16:15;;;;;;;14.00;12.60;;;;;;;3.06;82.42;96582.44;4295351;33;20205;-62
2021/12/19 09:18:47;;;;;;;11.40;10.30;;;;;;;3.21;78.02;96585.53;4318000;33;20294;-61
2021/12/19 09:21:15;;;;;;;11.40;10.30;;;;;;;3.29;76.80;96576.59;4288082;33;20346;-62
2021/12/19 09:23:49;;;;;;;12.10;10.57;;;;;;;2.68;76.26;96559.78;4340180;32;20322;-61
2021/12/19 09:26:17;;;;;;;10.03;9.07;;;;;;;3.12;79.99;96562.44;4317868;32;20299;-62
2021/12/19 09:28:42;;;;;;;11.47;10.30;;;;;;;3.20;78.54;96562.97;4312051;32;20300;-62
2021/12/19 09:31:09;;;;;;;11.10;10.00;;;;;;;3.36;77.46;96570.25;4351448;32;20269;-61
2021/12/19 09:33:36;;;;;;;10.20;9.10;;;;;;;3.37;76.36;96557.94;4338793;32;20204;-62
2021/12/19 09:36:08;;;;;;;10.70;9.60;;;;;;;3.66;80.87;96556.44;4312535;32;20339;-61
2021/12/19 09:38:35;;;;;;;12.27;10.30;;;;;;;3.28;76.29;96560.06;4338336;32;20302;-62
2021/12/19 09:41:13;;;;;;;10.47;9.33;;;;;;;3.45;78.25;96563.72;4332398;32;20312;-62
2021/12/19 09:43:46;;;;;;;10.87;9.37;;;;;;;3.68;75.62;96555.22;4313531;32;20303;-61
2021/12/19 09:46:15;;;;;;;10.80;9.70;;;;;;;3.76;76.10;96557.53;4341127;32;20324;-62
2021/12/19 09:48:43;;;;;;;70.43;40.27;;;;;;;3.96;77.46;96554.66;4332075;32;20289;-61
2021/12/19 09:51:15;;;;;;;17.37;13.40;;;;;;;3.63;78.13;96552.44;4343699;32;20286;-62
2021/12/19 09:53:43;;;;;;;11.27;10.33;;;;;;;3.94;76.02;96543.63;4316035;32;20317;-61
2021/12/19 09:56:10;;;;;;;13.93;10.27;;;;;;;3.89;77.71;96543.47;4335497;32;20282;-60
2021/12/19 09:58:39;;;;;;;13.87;10.53;;;;;;;4.04;74.28;96532.56;4339424;32;20320;-61
2021/12/19 10:01:10;;;;;;;15.67;9.60;;;;;;;3.57;73.88;96528.91;4323804;32;20372;-51
2021/12/19 10:03:39;;;;;;;15.50;8.07;;;;;;;4.36;84.45;96520.84;4317731;32;20301;-51
2021/12/19 10:06:29;;;;;;;18.27;8.40;;;;;;;5.97;89.33;96519.47;4344797;32;20337;-50
2021/12/19 10:09:18;;;;;;;13.57;7.77;;;;;;;7.13;82.85;96496.09;4343147;32;20288;-47
2021/12/19 10:12:11;;;;;;;17.30;9.17;;;;;;;7.36;71.59;96493.25;4299826;32;20282;-49
2021/12/19 10:14:42;;;;;;;9.63;8.50;;;;;;;7.88;65.76;96493.66;4323255;32;20290;-48
2021/12/19 10:17:25;;;;;;;10.90;8.60;;;;;;;8.28;64.49;96484.56;4330956;33;20262;-50
2021/12/19 10:19:55;;;;;;;9.60;8.60;;;;;;;8.64;62.93;96477.78;4334252;32;20376;-51
2021/12/19 10:22:41;;;;;;;10.07;9.17;;;;;;;8.78;59.09;96473.66;4340509;32;20293;-52
2021/12/19 10:25:21;;;;;;;9.23;8.43;;;;;;;8.81;60.58;96465.22;4323624;33;20282;-52
2021/12/19 10:28:03;;;;;;;10.20;9.13;;;;;;;9.06;60.49;96454.03;4312283;33;20270;-49
2021/12/19 10:30:39;;;;;;;10.53;9.43;;;;;;;9.28;59.00;96448.59;4331719;33;20253;-51
2021/12/19 10:33:25;;;;;;;10.90;9.90;;;;;;;8.97;57.75;96444.94;4330362;33;20264;-52
2021/12/19 10:35:56;;;;;;;10.10;9.20;;;;;;;9.08;55.60;96443.19;4274330;33;20232;-52
2021/12/19 10:38:31;;;;;;;9.73;8.83;;;;;;;9.28;56.96;96438.00;4321273;33;20204;-51
2021/12/19 10:41:20;;;;;;;9.97;8.73;;;;;;;9.09;58.81;96429.69;4319609;33;20177;-50
2021/12/19 10:45:29;;;;;;;8.63;7.80;;;;;;;8.68;57.73;96425.97;4306026;33;20339;-53
2021/12/19 10:46:54;;;;;;;9.70;8.90;;;;;;;9.20;60.45;96428.69;4316025;33;20177;-52
2021/12/19 10:49:33;;;;;;;9.70;8.70;;;;;;;9.39;58.81;96415.78;4311368;32;20193;-51
2021/12/19 10:52:04;;;;;;;9.50;8.70;;;;;;;9.69;58.79;96393.94;4300758;33;20181;-50
2021/12/19 10:54:30;;;;;;;7.83;7.23;;;;;;;9.94;55.41;96394.00;4313706;33;20229;-54
2021/12/19 10:57:09;;;;;;;8.67;7.97;;;;;;;10.52;55.66;96385.84;4301840;33;20197;-54
2021/12/19 10:59:36;;;;;;;10.13;9.13;;;;;;;11.05;53.20;96384.44;4309080;33;20244;-52
2021/12/19 11:02:04;;;;;;;8.40;7.60;;;;;;;11.27;51.54;96378.78;4316385;33;20277;-53
2021/12/19 11:04:32;;;;;;;8.87;8.17;;;;;;;11.60;50.29;96378.13;4325349;33;20177;-52
2021/12/19 11:07:02;;;;;;;9.60;8.80;;;;;;;11.47;48.41;96373.41;4320476;33;20219;-51
2021/12/19 11:09:34;;;;;;;8.17;7.57;;;;;;;11.75;48.29;96371.16;4329588;33;20178;-52
2021/12/19 11:12:11;;;;;;;8.63;7.90;;;;;;;11.87;48.49;96363.66;4319014;33;20187;-54
2021/12/19 11:14:47;;;;;;;6.77;6.30;;;;;;;11.74;48.91;96349.09;4306845;33;20189;-53
2021/12/19 11:17:27;;;;;;;10.07;8.40;;;;;;;12.15;48.55;96346.19;4324374;32;20208;-51
2021/12/19 11:19:59;;;;;;;9.90;9.10;;;;;;;11.32;47.38;96352.22;4326943;33;20215;-63
2021/12/19 11:22:37;;;;;;;9.30;8.60;;;;;;;9.79;49.88;96358.69;4329472;33;20204;-64
2021/12/19 11:25:04;;;;;;;9.67;8.87;;;;;;;8.69;53.04;96347.44;4323813;33;20261;-64
2021/12/19 11:27:34;;;;;;;9.40;8.60;;;;;;;7.42;56.74;96357.66;4330235;32;20189;-63
2021/12/19 11:30:04;;;;;;;8.90;8.17;;;;;;;6.55;60.54;96352.34;4322657;32;20216;-63
2021/12/19 11:32:48;;;;;;;8.90;8.20;;;;;;;5.89;63.54;96346.03;4293107;33;20281;-63
2021/12/19 11:35:20;;;;;;;9.50;8.70;;;;;;;6.07;63.69;96340.53;4330714;32;20369;-58
2021/12/19 11:37:57;;;;;;;8.40;7.70;;;;;;;5.49;65.82;96341.63;4322181;32;20290;-59
2021/12/19 11:40:26;;;;;;;8.83;8.13;;;;;;;5.62;65.63;96323.94;4325762;33;20305;-58
2021/12/19 11:43:01;;;;;;;8.83;7.83;;;;;;;5.72;66.23;96308.34;4316213;32;20424;-59
2021/12/19 11:45:41;;;;;;;8.23;7.43;;;;;;;5.68;66.57;96309.84;4320687;32;20309;-59
2021/12/19 11:48:36;;;;;;;9.90;8.13;;;;;;;5.62;66.06;96302.88;4309806;33;20303;-59
2021/12/19 11:51:24;;;;;;;9.23;8.33;;;;;;;5.58;67.43;96296.53;4322092;33;20380;-59
2021/12/19 11:53:54;;;;;;;9.10;7.63;;;;;;;5.65;67.18;96297.16;4319462;33;20281;-58
2021/12/19 11:56:19;;;;;;;9.07;8.17;;;;;;;5.72;67.08;96293.34;4322147;33;20286;-60
2021/12/19 11:58:55;;;;;;;7.97;7.27;;;;;;;5.83;66.63;96278.50;4331264;33;20266;-57
2021/12/19 12:01:27;;;;;;;11.20;8.07;;;;;;;5.73;67.60;96273.06;4310597;33;20302;-60
2021/12/19 12:04:03;;;;;;;8.70;7.47;;;;;;;5.61;67.46;96270.50;4330862;33;20292;-59
2021/12/19 12:06:56;;;;;;;8.17;7.00;;;;;;;5.67;67.85;96269.56;4323164;32;20288;-53
2021/12/19 12:09:28;;;;;;;8.43;7.13;;;;;;;5.48;68.66;96262.91;4313155;32;20302;-59
2021/12/19 12:12:14;;;;;;;8.03;7.23;;;;;;;5.52;68.66;96256.94;4307840;32;20339;-60
2021/12/19 12:15:05;;;;;;;8.67;7.87;;;;;;;5.78;68.73;96260.00;4334971;32;20341;-60
2021/12/19 12:17:41;;;;;;;7.30;6.70;;;;;;;5.86;67.94;96252.47;4328871;33;20290;-59
2021/12/19 12:20:17;;;;;;;7.40;6.70;;;;;;;5.81;68.44;96249.00;4301125;33;20287;-60
2021/12/19 12:23:03;;;;;;;7.33;6.73;;;;;;;5.85;70.27;96229.81;4279919;33;20354;-59
2021/12/19 12:25:33;;;;;;;7.67;6.87;;;;;;;5.80;69.08;96221.06;4324635;32;20338;-59
2021/12/19 12:28:10;;;;;;;7.30;6.70;;;;;;;5.91;68.87;96214.13;4318035;32;20388;-59
2021/12/19 12:30:40;;;;;;;6.97;6.23;;;;;;;5.74;70.10;96206.22;4333013;32;20278;-59
2021/12/19 12:33:14;;;;;;;7.50;6.80;;;;;;;5.98;69.13;96196.34;4331747;32;20290;-59
2021/12/19 12:35:45;;;;;;;6.63;6.00;;;;;;;6.17;68.68;96190.56;4318682;32;20282;-59
2021/12/19 12:38:18;;;;;;;6.47;5.87;;;;;;;6.24;68.23;96181.66;4330643;33;20369;-59
2021/12/19 12:41:06;;;;;;;6.53;5.97;;;;;;;6.19;68.30;96180.56;4315225;32;20278;-62
2021/12/19 12:43:42;;;;;;;6.43;5.83;;;;;;;6.44;68.30;96169.53;4306847;32;21345;-59
2021/12/19 12:46:14;;;;;;;6.30;5.80;;;;;;;6.24;68.25;96173.75;4325586;32;20273;-60
2021/12/19 12:49:01;;;;;;;6.53;6.03;;;;;;;6.37;68.57;96168.13;4302205;32;20296;-59